Private Wetterstation Sandau
Wetterdaten: Freitag, 18.01.2013
Datum Zeit Temp. A. Feuchte A. Luftdruck Regen Wind Richtung Richtung Taupunkt Windchill
18.01.2013 00:01 -0,4 C 89 % 1018,9 hPa 0,0 l/m 2,5 km/h (1 Bft) N-NO 22 -2,0 C -0,4 C
18.01.2013 00:06 -0,4 C 89 % 1019,0 hPa 0,0 l/m 0,0 km/h (0 Bft) N-NO 22 -2,0 C -0,4 C
18.01.2013 00:11 -0,4 C 89 % 1019,1 hPa 0,0 l/m 2,2 km/h (1 Bft) NO 45 -2,0 C -0,4 C
18.01.2013 00:16 -0,4 C 89 % 1018,9 hPa 0,0 l/m 2,2 km/h (1 Bft) O-NO 67 -2,0 C -0,4 C
18.01.2013 00:21 -0,4 C 89 % 1018,9 hPa 0,0 l/m 2,9 km/h (1 Bft) NO 45 -2,0 C -0,4 C
18.01.2013 00:26 -0,4 C 89 % 1018,9 hPa 0,0 l/m 0,0 km/h (0 Bft) NO 45 -2,0 C -0,4 C
18.01.2013 00:31 -0,4 C 89 % 1018,9 hPa 0,0 l/m 0,0 km/h (0 Bft) N-NO 22 -2,0 C -0,4 C
18.01.2013 00:36 -0,4 C 90 % 1019,1 hPa 0,0 l/m 2,5 km/h (1 Bft) N 360 -1,8 C -0,4 C
18.01.2013 00:41 -0,4 C 90 % 1018,8 hPa 0,0 l/m 4,7 km/h (1 Bft) N 360 -1,8 C -1,9 C
18.01.2013 00:46 -0,4 C 90 % 1018,8 hPa 0,0 l/m 2,2 km/h (1 Bft) N-NO 22 -1,8 C -0,4 C
18.01.2013 00:51 -0,4 C 90 % 1018,8 hPa 0,0 l/m 4,7 km/h (1 Bft) N-NO 22 -1,8 C -1,9 C
18.01.2013 00:56 -0,4 C 90 % 1018,6 hPa 0,0 l/m 4,0 km/h (1 Bft) N 360 -1,8 C -0,4 C
18.01.2013 01:01 -0,5 C 90 % 1018,7 hPa 0,0 l/m 1,1 km/h (1 Bft) NO 45 -1,9 C -0,5 C
18.01.2013 01:06 -0,4 C 90 % 1018,7 hPa 0,0 l/m 0,0 km/h (0 Bft) NO 45 -1,8 C -0,4 C
18.01.2013 01:11 -0,4 C 90 % 1018,5 hPa 0,0 l/m 1,8 km/h (1 Bft) N-NO 22 -1,8 C -0,4 C
18.01.2013 01:16 -0,5 C 90 % 1018,5 hPa 0,0 l/m 2,9 km/h (1 Bft) NO 45 -1,9 C -0,5 C
18.01.2013 01:21 -0,4 C 90 % 1018,6 hPa 0,0 l/m 0,0 km/h (0 Bft) NO 45 -1,8 C -0,4 C
18.01.2013 01:26 -0,5 C 90 % 1018,4 hPa 0,0 l/m 1,8 km/h (1 Bft) N-NO 22 -1,9 C -0,5 C
18.01.2013 01:31 -0,5 C 90 % 1018,3 hPa 0,0 l/m 2,9 km/h (1 Bft) O-NO 67 -1,9 C -0,5 C
18.01.2013 01:36 -0,5 C 91 % 1018,5 hPa 0,0 l/m 0,0 km/h (0 Bft) NO 45 -1,8 C -0,5 C
18.01.2013 01:41 -0,5 C 91 % 1018,2 hPa 0,0 l/m 1,4 km/h (1 Bft) O-NO 67 -1,8 C -0,5 C
18.01.2013 01:46 -0,5 C 91 % 1018,3 hPa 0,0 l/m 3,6 km/h (1 Bft) O-NO 67 -1,8 C -0,5 C
18.01.2013 01:51 -0,5 C 91 % 1018,3 hPa 0,0 l/m 1,8 km/h (1 Bft) N-NO 22 -1,8 C -0,5 C
18.01.2013 01:56 -0,5 C 91 % 1018,4 hPa 0,0 l/m 3,2 km/h (1 Bft) O-NO 67 -1,8 C -0,5 C
18.01.2013 02:01 -0,6 C 91 % 1018,2 hPa 0,0 l/m 2,2 km/h (1 Bft) O-NO 67 -1,9 C -0,6 C
18.01.2013 02:06 -0,6 C 91 % 1018,3 hPa 0,0 l/m 2,5 km/h (1 Bft) O-NO 67 -1,9 C -0,6 C
18.01.2013 02:11 -0,6 C 91 % 1018,2 hPa 0,0 l/m 5,0 km/h (1 Bft) NO 45 -1,9 C -2,3 C
18.01.2013 02:16 -0,6 C 91 % 1018,3 hPa 0,0 l/m 3,2 km/h (1 Bft) N-NO 22 -1,9 C -0,6 C
18.01.2013 02:21 -0,6 C 91 % 1018,1 hPa 0,0 l/m 4,7 km/h (1 Bft) O-NO 67 -1,9 C -2,1 C
18.01.2013 02:26 -0,6 C 90 % 1018,2 hPa 0,0 l/m 2,5 km/h (1 Bft) NO 45 -2,0 C -0,6 C
18.01.2013 02:31 -0,6 C 90 % 1018,1 hPa 0,0 l/m 3,2 km/h (1 Bft) N-NO 22 -2,0 C -0,6 C
18.01.2013 02:36 -0,6 C 90 % 1018,1 hPa 0,0 l/m 4,0 km/h (1 Bft) NO 45 -2,0 C -0,6 C
18.01.2013 02:41 -0,6 C 90 % 1017,9 hPa 0,0 l/m 2,5 km/h (1 Bft) NO 45 -2,0 C -0,6 C
18.01.2013 02:46 -0,6 C 90 % 1017,9 hPa 0,0 l/m 4,7 km/h (1 Bft) O-NO 67 -2,0 C -2,1 C
18.01.2013 02:51 -0,6 C 90 % 1017,9 hPa 0,0 l/m 0,0 km/h (0 Bft) O-NO 67 -2,0 C -0,6 C
18.01.2013 02:56 -0,6 C 90 % 1017,9 hPa 0,0 l/m 5,0 km/h (1 Bft) N-NO 22 -2,0 C -2,3 C
18.01.2013 03:01 -0,6 C 89 % 1018,0 hPa 0,0 l/m 2,5 km/h (1 Bft) N-NO 22 -2,2 C -0,6 C
18.01.2013 03:06 -0,6 C 89 % 1017,8 hPa 0,0 l/m 6,5 km/h (2 Bft) O-NO 67 -2,2 C -2,9 C
18.01.2013 03:11 -0,6 C 88 % 1017,7 hPa 0,0 l/m 10,4 km/h (2 Bft) O-NO 67 -2,3 C -4,1 C
18.01.2013 03:16 -0,6 C 88 % 1017,7 hPa 0,0 l/m 9,7 km/h (2 Bft) N 360 -2,3 C -3,9 C
18.01.2013 03:21 -0,6 C 87 % 1017,8 hPa 0,0 l/m 5,0 km/h (1 Bft) O-NO 67 -2,5 C -2,3 C
18.01.2013 03:26 -0,7 C 87 % 1017,7 hPa 0,0 l/m 9,7 km/h (2 Bft) O-NO 67 -2,6 C -4,1 C
18.01.2013 03:31 -0,7 C 86 % 1017,6 hPa 0,0 l/m 4,7 km/h (1 Bft) O-NO 67 -2,7 C -2,2 C
18.01.2013 03:36 -0,7 C 86 % 1017,4 hPa 0,0 l/m 4,7 km/h (1 Bft) O-NO 67 -2,7 C -2,2 C
18.01.2013 03:41 -0,7 C 86 % 1017,5 hPa 0,0 l/m 7,2 km/h (2 Bft) O-NO 67 -2,7 C -3,3 C
18.01.2013 03:46 -0,7 C 86 % 1017,4 hPa 0,0 l/m 7,9 km/h (2 Bft) O-NO 67 -2,7 C -3,5 C
18.01.2013 03:51 -0,7 C 85 % 1017,5 hPa 0,0 l/m 10,1 km/h (2 Bft) O-NO 67 -2,9 C -4,2 C
18.01.2013 03:56 -0,7 C 85 % 1017,6 hPa 0,0 l/m 4,7 km/h (1 Bft) O-NO 67 -2,9 C -2,2 C
18.01.2013 04:01 -0,7 C 85 % 1017,6 hPa 0,0 l/m 6,5 km/h (2 Bft) NO 45 -2,9 C -3,0 C
18.01.2013 04:06 -0,7 C 85 % 1017,5 hPa 0,0 l/m 7,6 km/h (2 Bft) NO 45 -2,9 C -3,4 C
18.01.2013 04:11 -0,7 C 86 % 1017,4 hPa 0,0 l/m 8,3 km/h (2 Bft) O-NO 67 -2,7 C -3,7 C
18.01.2013 04:16 -0,8 C 86 % 1017,4 hPa 0,0 l/m 12,2 km/h (2 Bft) NO 45 -2,8 C -4,8 C
18.01.2013 04:21 -0,8 C 86 % 1017,3 hPa 0,0 l/m 14,8 km/h (3 Bft) O-NO 67 -2,8 C -5,4 C
18.01.2013 04:26 -0,8 C 86 % 1017,2 hPa 0,0 l/m 6,5 km/h (2 Bft) O-NO 67 -2,8 C -3,1 C
18.01.2013 04:31 -0,8 C 86 % 1017,3 hPa 0,0 l/m 9,7 km/h (2 Bft) O-NO 67 -2,8 C -4,2 C
18.01.2013 04:36 -0,8 C 86 % 1017,1 hPa 0,0 l/m 4,7 km/h (1 Bft) O-NO 67 -2,8 C -2,3 C
18.01.2013 04:41 -0,9 C 86 % 1017,1 hPa 0,0 l/m 6,5 km/h (2 Bft) O-NO 67 -2,9 C -3,3 C
18.01.2013 04:46 -0,9 C 86 % 1016,9 hPa 0,0 l/m 4,0 km/h (1 Bft) O-SO 112 -2,9 C -0,9 C
18.01.2013 04:51 -0,9 C 86 % 1017,1 hPa 0,0 l/m 4,3 km/h (1 Bft) NO 45 -2,9 C -0,9 C
18.01.2013 04:56 -0,9 C 86 % 1017,0 hPa 0,0 l/m 1,8 km/h (1 Bft) O-SO 112 -2,9 C -0,9 C
18.01.2013 05:01 -1,0 C 86 % 1017,1 hPa 0,0 l/m 4,3 km/h (1 Bft) NO 45 -3,0 C -1,0 C
18.01.2013 05:06 -1,0 C 86 % 1017,0 hPa 0,0 l/m 2,2 km/h (1 Bft) O-NO 67 -3,0 C -1,0 C
18.01.2013 05:11 -1,1 C 86 % 1016,8 hPa 0,0 l/m 2,5 km/h (1 Bft) O 90 -3,1 C -1,1 C
18.01.2013 05:16 -1,1 C 86 % 1017,0 hPa 0,0 l/m 3,6 km/h (1 Bft) O-NO 67 -3,1 C -1,1 C
18.01.2013 05:21 -1,1 C 86 % 1016,8 hPa 0,0 l/m 3,2 km/h (1 Bft) O-NO 67 -3,1 C -1,1 C
18.01.2013 05:26 -1,1 C 86 % 1016,8 hPa 0,0 l/m 4,0 km/h (1 Bft) NO 45 -3,1 C -1,1 C
18.01.2013 05:31 -1,1 C 85 % 1016,8 hPa 0,0 l/m 12,6 km/h (3 Bft) O-SO 112 -3,3 C -5,3 C
18.01.2013 05:36 -1,1 C 85 % 1016,8 hPa 0,0 l/m 7,2 km/h (2 Bft) O 90 -3,3 C -3,8 C
18.01.2013 05:41 -1,2 C 85 % 1016,7 hPa 0,0 l/m 6,8 km/h (2 Bft) NO 45 -3,4 C -3,7 C
18.01.2013 05:46 -1,2 C 85 % 1016,7 hPa 0,0 l/m 2,5 km/h (1 Bft) NO 45 -3,4 C -1,2 C
18.01.2013 05:51 -1,2 C 85 % 1016,6 hPa 0,0 l/m 4,3 km/h (1 Bft) O 90 -3,4 C -1,2 C
18.01.2013 05:56 -1,2 C 85 % 1016,9 hPa 0,0 l/m 2,9 km/h (1 Bft) O-SO 112 -3,4 C -1,2 C
18.01.2013 06:01 -1,2 C 85 % 1016,8 hPa 0,0 l/m 5,0 km/h (1 Bft) O-SO 112 -3,4 C -3,0 C
18.01.2013 06:06 -1,2 C 85 % 1016,8 hPa 0,0 l/m 3,2 km/h (1 Bft) O-SO 112 -3,4 C -1,2 C
18.01.2013 06:11 -1,3 C 85 % 1016,7 hPa 0,0 l/m 4,3 km/h (1 Bft) O-SO 112 -3,5 C -1,3 C
18.01.2013 06:16 -1,3 C 85 % 1016,8 hPa 0,0 l/m 3,2 km/h (1 Bft) NO 45 -3,5 C -1,3 C
18.01.2013 06:21 -1,3 C 85 % 1016,7 hPa 0,0 l/m 4,0 km/h (1 Bft) O-SO 112 -3,5 C -1,3 C
18.01.2013 06:26 -1,4 C 85 % 1016,7 hPa 0,0 l/m 3,2 km/h (1 Bft) O 90 -3,6 C -1,4 C
18.01.2013 06:31 -1,4 C 86 % 1016,7 hPa 0,0 l/m 2,9 km/h (1 Bft) O 90 -3,4 C -1,4 C
18.01.2013 06:36 -1,4 C 86 % 1016,6 hPa 0,0 l/m 0,0 km/h (0 Bft) O-NO 67 -3,4 C -1,4 C
18.01.2013 06:41 -1,4 C 86 % 1016,6 hPa 0,0 l/m 7,2 km/h (2 Bft) O 90 -3,4 C -4,1 C
18.01.2013 06:46 -1,4 C 86 % 1016,6 hPa 0,0 l/m 6,1 km/h (2 Bft) NO 45 -3,4 C -3,7 C
18.01.2013 06:51 -1,4 C 86 % 1016,5 hPa 0,0 l/m 5,0 km/h (1 Bft) NO 45 -3,4 C -3,2 C
18.01.2013 06:56 -1,4 C 86 % 1016,5 hPa 0,0 l/m 3,6 km/h (1 Bft) O 90 -3,4 C -1,4 C
18.01.2013 07:01 -1,4 C 86 % 1016,6 hPa 0,0 l/m 3,2 km/h (1 Bft) O-SO 112 -3,4 C -1,4 C
18.01.2013 07:06 -1,4 C 86 % 1016,5 hPa 0,0 l/m 6,5 km/h (2 Bft) O-SO 112 -3,4 C -3,8 C
18.01.2013 07:11 -1,4 C 86 % 1016,4 hPa 0,0 l/m 5,4 km/h (1 Bft) O-SO 112 -3,4 C -3,4 C
18.01.2013 07:16 -1,4 C 86 % 1016,4 hPa 0,0 l/m 5,0 km/h (1 Bft) O-SO 112 -3,4 C -3,2 C
18.01.2013 07:21 -1,5 C 86 % 1016,5 hPa 0,0 l/m 8,6 km/h (2 Bft) O-SO 112 -3,5 C -4,7 C
18.01.2013 07:26 -1,5 C 86 % 1016,4 hPa 0,0 l/m 4,7 km/h (1 Bft) SO 135 -3,5 C -3,1 C
18.01.2013 07:31 -1,5 C 86 % 1016,6 hPa 0,0 l/m 2,5 km/h (1 Bft) NO 45 -3,5 C -1,5 C
18.01.2013 07:36 -1,5 C 86 % 1016,5 hPa 0,0 l/m 4,7 km/h (1 Bft) O 90 -3,5 C -3,1 C
18.01.2013 07:41 -1,5 C 86 % 1016,6 hPa 0,0 l/m 4,3 km/h (1 Bft) O-SO 112 -3,5 C -1,5 C
18.01.2013 07:46 -1,6 C 86 % 1016,7 hPa 0,0 l/m 2,5 km/h (1 Bft) O-NO 67 -3,6 C -1,6 C
18.01.2013 07:51 -1,6 C 86 % 1016,6 hPa 0,0 l/m 4,0 km/h (1 Bft) O-NO 67 -3,6 C -1,6 C
18.01.2013 07:56 -1,6 C 86 % 1016,6 hPa 0,0 l/m 3,2 km/h (1 Bft) O-NO 67 -3,6 C -1,6 C
18.01.2013 08:01 -1,6 C 86 % 1016,7 hPa 0,0 l/m 6,1 km/h (2 Bft) O-NO 67 -3,6 C -3,9 C
18.01.2013 08:06 -1,6 C 86 % 1016,7 hPa 0,0 l/m 2,2 km/h (1 Bft) O 90 -3,6 C -1,6 C
18.01.2013 08:11 -1,6 C 86 % 1016,7 hPa 0,0 l/m 4,0 km/h (1 Bft) O-SO 112 -3,6 C -1,6 C
18.01.2013 08:16 -1,6 C 86 % 1016,5 hPa 0,0 l/m 9,0 km/h (2 Bft) O-SO 112 -3,6 C -4,9 C
18.01.2013 08:21 -1,6 C 86 % 1016,7 hPa 0,0 l/m 3,2 km/h (1 Bft) O 90 -3,6 C -1,6 C
18.01.2013 08:26 -1,6 C 86 % 1016,7 hPa 0,0 l/m 5,0 km/h (1 Bft) O 90 -3,6 C -3,4 C
18.01.2013 08:31 -1,6 C 86 % 1016,5 hPa 0,0 l/m 5,0 km/h (1 Bft) SO 135 -3,6 C -3,4 C
18.01.2013 08:36 -1,6 C 85 % 1016,6 hPa 0,0 l/m 0,0 km/h (0 Bft) O-NO 67 -3,8 C -1,6 C
18.01.2013 08:41 -1,6 C 85 % 1016,7 hPa 0,0 l/m 3,6 km/h (1 Bft) O-SO 112 -3,8 C -1,6 C
18.01.2013 08:46 -1,6 C 85 % 1016,6 hPa 0,0 l/m 5,0 km/h (1 Bft) O-SO 112 -3,8 C -3,4 C
18.01.2013 08:51 -1,6 C 85 % 1016,5 hPa 0,0 l/m 5,0 km/h (1 Bft) O-NO 67 -3,8 C -3,4 C
18.01.2013 08:56 -1,6 C 85 % 1016,6 hPa 0,0 l/m 2,9 km/h (1 Bft) NO 45 -3,8 C -1,6 C
18.01.2013 09:01 -1,6 C 85 % 1016,7 hPa 0,0 l/m 5,8 km/h (2 Bft) O-SO 112 -3,8 C -3,8 C
18.01.2013 09:06 -1,6 C 85 % 1016,5 hPa 0,0 l/m 3,6 km/h (1 Bft) O-SO 112 -3,8 C -1,6 C
18.01.2013 09:11 -1,6 C 85 % 1016,4 hPa 0,0 l/m 3,6 km/h (1 Bft) O-SO 112 -3,8 C -1,6 C
18.01.2013 09:16 -1,6 C 85 % 1016,5 hPa 0,0 l/m 4,7 km/h (1 Bft) SO 135 -3,8 C -3,3 C
18.01.2013 09:21 -1,6 C 85 % 1016,6 hPa 0,0 l/m 4,3 km/h (1 Bft) O-NO 67 -3,8 C -1,6 C
18.01.2013 09:26 -1,6 C 85 % 1016,4 hPa 0,0 l/m 16,6 km/h (3 Bft) O-NO 67 -3,8 C -6,7 C
18.01.2013 09:31 -1,6 C 85 % 1016,5 hPa 0,0 l/m 3,2 km/h (1 Bft) O 90 -3,8 C -1,6 C
18.01.2013 09:36 -1,6 C 85 % 1016,4 hPa 0,0 l/m 5,0 km/h (1 Bft) O 90 -3,8 C -3,4 C
18.01.2013 09:41 -1,6 C 85 % 1016,6 hPa 0,0 l/m 2,2 km/h (1 Bft) NO 45 -3,8 C -1,6 C
18.01.2013 09:46 -1,7 C 85 % 1016,4 hPa 0,0 l/m 9,7 km/h (2 Bft) O-SO 112 -3,9 C -5,3 C
18.01.2013 09:51 -1,7 C 85 % 1016,4 hPa 0,0 l/m 5,0 km/h (1 Bft) O-NO 67 -3,9 C -3,5 C
18.01.2013 09:56 -1,7 C 85 % 1016,4 hPa 0,0 l/m 12,2 km/h (2 Bft) S-SO 157 -3,9 C -5,9 C
18.01.2013 10:01 -1,8 C 85 % 1016,4 hPa 0,0 l/m 3,6 km/h (1 Bft) SO 135 -4,0 C -1,8 C
18.01.2013 10:06 -1,8 C 85 % 1016,5 hPa 0,0 l/m 5,4 km/h (1 Bft) SO 135 -4,0 C -3,8 C
18.01.2013 10:11 -1,8 C 85 % 1016,5 hPa 0,0 l/m 4,3 km/h (1 Bft) SO 135 -4,0 C -1,8 C
18.01.2013 10:16 -1,9 C 85 % 1016,4 hPa 0,0 l/m 6,5 km/h (2 Bft) O-SO 112 -4,1 C -4,4 C
18.01.2013 10:21 -1,9 C 85 % 1016,3 hPa 0,0 l/m 7,9 km/h (2 Bft) O-SO 112 -4,1 C -4,9 C
18.01.2013 10:26 -1,9 C 85 % 1016,3 hPa 0,0 l/m 9,7 km/h (2 Bft) O-SO 112 -4,1 C -5,5 C
18.01.2013 10:31 -1,9 C 85 % 1016,2 hPa 0,0 l/m 8,3 km/h (2 Bft) O-SO 112 -4,1 C -5,1 C
18.01.2013 10:36 -1,9 C 85 % 1016,1 hPa 0,0 l/m 8,3 km/h (2 Bft) SO 135 -4,1 C -5,1 C
18.01.2013 10:41 -1,9 C 85 % 1016,0 hPa 0,0 l/m 10,1 km/h (2 Bft) O-SO 112 -4,1 C -5,6 C
18.01.2013 10:46 -1,9 C 85 % 1015,7 hPa 0,0 l/m 4,3 km/h (1 Bft) O-SO 112 -4,1 C -1,9 C
18.01.2013 10:51 -1,9 C 85 % 1016,0 hPa 0,0 l/m 5,0 km/h (1 Bft) O 90 -4,1 C -3,7 C
18.01.2013 10:56 -1,9 C 85 % 1015,9 hPa 0,0 l/m 3,6 km/h (1 Bft) O-SO 112 -4,1 C -1,9 C
18.01.2013 11:01 -1,9 C 85 % 1015,7 hPa 0,0 l/m 4,7 km/h (1 Bft) SO 135 -4,1 C -3,6 C
18.01.2013 11:06 -1,9 C 85 % 1015,7 hPa 0,0 l/m 4,0 km/h (1 Bft) O 90 -4,1 C -1,9 C
18.01.2013 11:11 -1,9 C 85 % 1015,7 hPa 0,0 l/m 11,2 km/h (2 Bft) O-SO 112 -4,1 C -5,9 C
18.01.2013 11:16 -1,9 C 85 % 1015,7 hPa 0,0 l/m 5,8 km/h (2 Bft) SO 135 -4,1 C -4,1 C
18.01.2013 11:21 -1,9 C 85 % 1015,5 hPa 0,0 l/m 7,2 km/h (2 Bft) SO 135 -4,1 C -4,7 C
18.01.2013 11:26 -1,8 C 85 % 1015,4 hPa 0,0 l/m 5,0 km/h (1 Bft) O-NO 67 -4,0 C -3,6 C
18.01.2013 11:31 -1,9 C 85 % 1015,5 hPa 0,0 l/m 8,6 km/h (2 Bft) O-SO 112 -4,1 C -5,2 C
18.01.2013 11:36 -1,9 C 85 % 1015,3 hPa 0,0 l/m 13,0 km/h (3 Bft) SO 135 -4,1 C -6,3 C
18.01.2013 11:41 -1,8 C 85 % 1015,4 hPa 0,0 l/m 5,0 km/h (1 Bft) O 90 -4,0 C -3,6 C
18.01.2013 11:46 -1,8 C 85 % 1015,4 hPa 0,0 l/m 13,7 km/h (3 Bft) O-SO 112 -4,0 C -6,4 C
18.01.2013 11:51 -1,8 C 85 % 1015,2 hPa 0,0 l/m 9,7 km/h (2 Bft) SO 135 -4,0 C -5,4 C
18.01.2013 11:56 -1,9 C 84 % 1015,2 hPa 0,0 l/m 2,9 km/h (1 Bft) O-SO 112 -4,2 C -1,9 C
18.01.2013 12:01 -1,8 C 85 % 1015,1 hPa 0,0 l/m 9,7 km/h (2 Bft) O 90 -4,0 C -5,4 C
18.01.2013 12:06 -1,8 C 84 % 1015,0 hPa 0,0 l/m 9,0 km/h (2 Bft) O-SO 112 -4,1 C -5,2 C
18.01.2013 12:11 -1,9 C 84 % 1015,1 hPa 0,0 l/m 6,5 km/h (2 Bft) O-SO 112 -4,2 C -4,4 C
18.01.2013 12:16 -1,9 C 84 % 1014,9 hPa 0,0 l/m 9,4 km/h (2 Bft) SO 135 -4,2 C -5,4 C
18.01.2013 12:21 -1,9 C 84 % 1015,1 hPa 0,0 l/m 2,5 km/h (1 Bft) SO 135 -4,2 C -1,9 C
18.01.2013 12:26 -1,9 C 84 % 1014,9 hPa 0,0 l/m 9,4 km/h (2 Bft) O-SO 112 -4,2 C -5,4 C
18.01.2013 12:31 -1,9 C 83 % 1015,0 hPa 0,0 l/m 5,4 km/h (1 Bft) O 90 -4,4 C -3,9 C
18.01.2013 12:36 -1,9 C 83 % 1014,8 hPa 0,0 l/m 3,2 km/h (1 Bft) O-SO 112 -4,4 C -1,9 C
18.01.2013 12:41 -1,9 C 83 % 1014,9 hPa 0,0 l/m 7,6 km/h (2 Bft) S-SO 157 -4,4 C -4,8 C
18.01.2013 12:46 -1,8 C 83 % 1014,9 hPa 0,0 l/m 10,1 km/h (2 Bft) O-SO 112 -4,3 C -5,5 C
18.01.2013 12:51 -1,8 C 83 % 1014,6 hPa 0,0 l/m 5,0 km/h (1 Bft) O-SO 112 -4,3 C -3,6 C
18.01.2013 12:56 -1,8 C 83 % 1014,6 hPa 0,0 l/m 6,8 km/h (2 Bft) O-SO 112 -4,3 C -4,4 C
18.01.2013 13:01 -1,9 C 83 % 1014,6 hPa 0,0 l/m 5,4 km/h (1 Bft) O-SO 112 -4,4 C -3,9 C
18.01.2013 13:06 -1,9 C 82 % 1014,5 hPa 0,0 l/m 5,8 km/h (2 Bft) SO 135 -4,6 C -4,1 C
18.01.2013 13:11 -1,9 C 82 % 1014,4 hPa 0,0 l/m 6,8 km/h (2 Bft) O-NO 67 -4,6 C -4,5 C
18.01.2013 13:16 -1,9 C 82 % 1014,2 hPa 0,0 l/m 3,6 km/h (1 Bft) SO 135 -4,6 C -1,9 C
18.01.2013 13:21 -1,9 C 83 % 1014,4 hPa 0,0 l/m 8,3 km/h (2 Bft) O 90 -4,4 C -5,1 C
18.01.2013 13:26 -1,9 C 82 % 1014,2 hPa 0,0 l/m 5,0 km/h (1 Bft) O-NO 67 -4,6 C -3,7 C
18.01.2013 13:31 -1,9 C 82 % 1014,0 hPa 0,0 l/m 6,5 km/h (2 Bft) O-SO 112 -4,6 C -4,4 C
18.01.2013 13:36 -1,9 C 82 % 1014,0 hPa 0,0 l/m 6,1 km/h (2 Bft) S-SO 157 -4,6 C -4,3 C
18.01.2013 13:41 -1,9 C 82 % 1014,1 hPa 0,0 l/m 4,7 km/h (1 Bft) SO 135 -4,6 C -3,6 C
18.01.2013 13:46 -1,9 C 82 % 1014,1 hPa 0,0 l/m 7,2 km/h (2 Bft) O-SO 112 -4,6 C -4,7 C
18.01.2013 13:51 -1,9 C 82 % 1014,2 hPa 0,0 l/m 2,5 km/h (1 Bft) SO 135 -4,6 C -1,9 C
18.01.2013 13:56 -1,9 C 82 % 1014,1 hPa 0,0 l/m 6,1 km/h (2 Bft) O-SO 112 -4,6 C -4,3 C
18.01.2013 14:01 -1,9 C 82 % 1014,0 hPa 0,0 l/m 6,1 km/h (2 Bft) O-SO 112 -4,6 C -4,3 C
18.01.2013 14:06 -2,0 C 82 % 1013,9 hPa 0,0 l/m 7,2 km/h (2 Bft) SO 135 -4,7 C -4,8 C
18.01.2013 14:11 -2,1 C 82 % 1014,1 hPa 0,0 l/m 5,8 km/h (2 Bft) SO 135 -4,7 C -4,4 C
18.01.2013 14:16 -2,1 C 82 % 1014,0 hPa 0,0 l/m 3,2 km/h (1 Bft) SO 135 -4,7 C -2,1 C
18.01.2013 14:21 -2,1 C 82 % 1013,9 hPa 0,0 l/m 4,7 km/h (1 Bft) SO 135 -4,7 C -3,8 C
18.01.2013 14:26 -2,1 C 82 % 1013,8 hPa 0,0 l/m 10,1 km/h (2 Bft) O-SO 112 -4,7 C -5,9 C
18.01.2013 14:31 -2,1 C 82 % 1013,8 hPa 0,0 l/m 6,8 km/h (2 Bft) S-SO 157 -4,7 C -4,8 C
18.01.2013 14:36 -2,1 C 82 % 1013,8 hPa 0,0 l/m 2,9 km/h (1 Bft) O-SO 112 -4,7 C -2,1 C
18.01.2013 14:41 -2,1 C 82 % 1013,8 hPa 0,0 l/m 7,9 km/h (2 Bft) S 180 -4,7 C -5,2 C
18.01.2013 14:46 -2,1 C 82 % 1013,8 hPa 0,0 l/m 6,8 km/h (2 Bft) O 90 -4,7 C -4,8 C
18.01.2013 14:51 -2,1 C 82 % 1013,8 hPa 0,0 l/m 6,8 km/h (2 Bft) SO 135 -4,7 C -4,8 C
18.01.2013 14:56 -2,1 C 82 % 1013,9 hPa 0,0 l/m 6,5 km/h (2 Bft) O-SO 112 -4,7 C -4,6 C
18.01.2013 15:01 -2,1 C 82 % 1013,8 hPa 0,0 l/m 7,6 km/h (2 Bft) S-SO 157 -4,7 C -5,1 C
18.01.2013 15:06 -2,1 C 82 % 1013,7 hPa 0,0 l/m 14,4 km/h (3 Bft) O-SO 112 -4,7 C -6,9 C
18.01.2013 15:11 -2,2 C 82 % 1013,7 hPa 0,0 l/m 0,0 km/h (0 Bft) O 90 -4,8 C -2,2 C
18.01.2013 15:16 -2,2 C 82 % 1013,7 hPa 0,0 l/m 4,7 km/h (1 Bft) O-SO 112 -4,8 C -3,9 C
18.01.2013 15:21 -2,2 C 82 % 1013,6 hPa 0,0 l/m 11,9 km/h (2 Bft) SO 135 -4,8 C -6,4 C
18.01.2013 15:26 -2,2 C 82 % 1013,8 hPa 0,0 l/m 6,1 km/h (2 Bft) S-SO 157 -4,8 C -4,6 C
18.01.2013 15:31 -2,2 C 82 % 1013,6 hPa 0,0 l/m 4,0 km/h (1 Bft) O-SO 112 -4,8 C -2,2 C
18.01.2013 15:36 -2,2 C 82 % 1013,6 hPa 0,0 l/m 4,3 km/h (1 Bft) O 90 -4,8 C -2,2 C
18.01.2013 15:41 -2,2 C 82 % 1013,7 hPa 0,0 l/m 8,3 km/h (2 Bft) SO 135 -4,8 C -5,4 C
18.01.2013 15:46 -2,2 C 82 % 1013,7 hPa 0,0 l/m 11,5 km/h (2 Bft) O-SO 112 -4,8 C -6,3 C
18.01.2013 15:51 -2,3 C 82 % 1013,6 hPa 0,0 l/m 10,1 km/h (2 Bft) SO 135 -4,9 C -6,1 C
18.01.2013 15:56 -2,3 C 82 % 1013,5 hPa 0,0 l/m 4,0 km/h (1 Bft) S-SO 157 -4,9 C -2,3 C
18.01.2013 16:01 -2,4 C 82 % 1013,5 hPa 0,0 l/m 3,6 km/h (1 Bft) O 90 -5,0 C -2,4 C
18.01.2013 16:06 -2,4 C 82 % 1013,6 hPa 0,0 l/m 2,5 km/h (1 Bft) SO 135 -5,0 C -2,4 C
18.01.2013 16:11 -2,4 C 82 % 1013,4 hPa 0,0 l/m 6,8 km/h (2 Bft) SO 135 -5,0 C -5,1 C
18.01.2013 16:16 -2,4 C 82 % 1013,4 hPa 0,0 l/m 4,7 km/h (1 Bft) O-SO 112 -5,0 C -4,2 C
18.01.2013 16:21 -2,4 C 82 % 1013,3 hPa 0,0 l/m 2,5 km/h (1 Bft) O-SO 112 -5,0 C -2,4 C
18.01.2013 16:26 -2,4 C 82 % 1013,2 hPa 0,0 l/m 6,8 km/h (2 Bft) SO 135 -5,0 C -5,1 C
18.01.2013 16:31 -2,4 C 82 % 1013,2 hPa 0,0 l/m 7,6 km/h (2 Bft) O 90 -5,0 C -5,4 C
18.01.2013 16:36 -2,4 C 82 % 1013,1 hPa 0,0 l/m 0,0 km/h (0 Bft) O-SO 112 -5,0 C -2,4 C
18.01.2013 16:41 -2,4 C 82 % 1013,1 hPa 0,0 l/m 1,4 km/h (1 Bft) O-SO 112 -5,0 C -2,4 C
18.01.2013 16:46 -2,4 C 82 % 1013,0 hPa 0,0 l/m 3,6 km/h (1 Bft) O-SO 112 -5,0 C -2,4 C
18.01.2013 16:51 -2,4 C 82 % 1012,8 hPa 0,0 l/m 2,5 km/h (1 Bft) O-SO 112 -5,0 C -2,4 C
18.01.2013 16:56 -2,4 C 82 % 1012,9 hPa 0,0 l/m 1,8 km/h (1 Bft) O-SO 112 -5,0 C -2,4 C
18.01.2013 17:01 -2,4 C 81 % 1012,8 hPa 0,0 l/m 9,4 km/h (2 Bft) O 90 -5,2 C -6,0 C
18.01.2013 17:06 -2,4 C 81 % 1012,7 hPa 0,0 l/m 3,6 km/h (1 Bft) NO 45 -5,2 C -2,4 C
18.01.2013 17:11 -2,5 C 81 % 1012,8 hPa 0,0 l/m 7,2 km/h (2 Bft) O-SO 112 -5,3 C -5,4 C
18.01.2013 17:16 -2,5 C 81 % 1012,8 hPa 0,0 l/m 6,5 km/h (2 Bft) O-NO 67 -5,3 C -5,1 C
18.01.2013 17:21 -2,5 C 81 % 1013,0 hPa 0,0 l/m 5,0 km/h (1 Bft) O-SO 112 -5,3 C -4,4 C
18.01.2013 17:26 -2,5 C 81 % 1012,9 hPa 0,0 l/m 3,6 km/h (1 Bft) O-NO 67 -5,3 C -2,5 C
18.01.2013 17:31 -2,5 C 80 % 1012,9 hPa 0,0 l/m 4,7 km/h (1 Bft) O-NO 67 -5,5 C -4,3 C
18.01.2013 17:36 -2,5 C 80 % 1012,8 hPa 0,0 l/m 4,7 km/h (1 Bft) O-NO 67 -5,5 C -4,3 C
18.01.2013 17:41 -2,5 C 80 % 1012,7 hPa 0,0 l/m 6,1 km/h (2 Bft) O-NO 67 -5,5 C -4,9 C
18.01.2013 17:46 -2,5 C 80 % 1012,7 hPa 0,0 l/m 3,2 km/h (1 Bft) O-SO 112 -5,5 C -2,5 C
18.01.2013 17:51 -2,5 C 80 % 1012,6 hPa 0,0 l/m 2,9 km/h (1 Bft) O-SO 112 -5,5 C -2,5 C
18.01.2013 17:56 -2,5 C 80 % 1012,5 hPa 0,0 l/m 5,8 km/h (2 Bft) O 90 -5,5 C -4,8 C
18.01.2013 18:01 -2,5 C 80 % 1012,4 hPa 0,0 l/m 2,9 km/h (1 Bft) O 90 -5,5 C -2,5 C
18.01.2013 18:06 -2,5 C 80 % 1012,5 hPa 0,0 l/m 9,4 km/h (2 Bft) O-NO 67 -5,5 C -6,1 C
18.01.2013 18:11 -2,5 C 80 % 1012,4 hPa 0,0 l/m 5,4 km/h (1 Bft) O 90 -5,5 C -4,6 C
18.01.2013 18:16 -2,5 C 80 % 1012,6 hPa 0,0 l/m 5,0 km/h (1 Bft) O-NO 67 -5,5 C -4,4 C
18.01.2013 18:21 -2,4 C 80 % 1012,5 hPa 0,0 l/m 7,2 km/h (2 Bft) SO 135 -5,4 C -5,3 C
18.01.2013 18:26 -2,4 C 80 % 1012,5 hPa 0,0 l/m 5,8 km/h (2 Bft) O-SO 112 -5,4 C -4,7 C
18.01.2013 18:31 -2,4 C 79 % 1012,5 hPa 0,0 l/m 5,4 km/h (1 Bft) O 90 -5,5 C -4,5 C
18.01.2013 18:36 -2,4 C 80 % 1012,4 hPa 0,0 l/m 4,7 km/h (1 Bft) O-NO 67 -5,4 C -4,2 C
18.01.2013 18:41 -2,4 C 79 % 1012,4 hPa 0,0 l/m 6,1 km/h (2 Bft) O-SO 112 -5,5 C -4,8 C
18.01.2013 18:46 -2,4 C 80 % 1012,5 hPa 0,0 l/m 4,7 km/h (1 Bft) S-SO 157 -5,4 C -4,2 C
18.01.2013 18:51 -2,4 C 80 % 1012,3 hPa 0,0 l/m 7,2 km/h (2 Bft) O-NO 67 -5,4 C -5,3 C
18.01.2013 18:56 -2,4 C 79 % 1012,4 hPa 0,0 l/m 8,6 km/h (2 Bft) O-SO 112 -5,5 C -5,8 C
18.01.2013 19:01 -2,4 C 79 % 1012,4 hPa 0,0 l/m 8,3 km/h (2 Bft) O-SO 112 -5,5 C -5,7 C
18.01.2013 19:06 -2,4 C 79 % 1012,4 hPa 0,0 l/m 5,4 km/h (1 Bft) O-SO 112 -5,5 C -4,5 C
18.01.2013 19:11 -2,4 C 80 % 1012,2 hPa 0,0 l/m 10,4 km/h (2 Bft) S-SO 157 -5,4 C -6,3 C
18.01.2013 19:16 -2,4 C 79 % 1012,1 hPa 0,0 l/m 15,8 km/h (3 Bft) O-NO 67 -5,5 C -7,5 C
18.01.2013 19:21 -2,4 C 79 % 1012,0 hPa 0,0 l/m 7,6 km/h (2 Bft) SO 135 -5,5 C -5,4 C
18.01.2013 19:26 -2,4 C 80 % 1011,9 hPa 0,0 l/m 4,7 km/h (1 Bft) O-SO 112 -5,4 C -4,2 C
18.01.2013 19:31 -2,4 C 80 % 1011,9 hPa 0,0 l/m 18,4 km/h (3 Bft) S-SO 157 -5,4 C -8,0 C
18.01.2013 19:36 -2,4 C 80 % 1011,9 hPa 0,0 l/m 6,5 km/h (2 Bft) O 90 -5,4 C -5,0 C
18.01.2013 19:41 -2,4 C 79 % 1011,9 hPa 0,0 l/m 5,0 km/h (1 Bft) O 90 -5,5 C -4,3 C
18.01.2013 19:46 -2,4 C 80 % 1011,9 hPa 0,0 l/m 9,7 km/h (2 Bft) O-NO 67 -5,4 C -6,1 C
18.01.2013 19:51 -2,4 C 79 % 1011,8 hPa 0,0 l/m 5,8 km/h (2 Bft) O-SO 112 -5,5 C -4,7 C
18.01.2013 19:56 -2,4 C 79 % 1011,8 hPa 0,0 l/m 6,5 km/h (2 Bft) SO 135 -5,5 C -5,0 C
18.01.2013 20:01 -2,4 C 79 % 1011,8 hPa 0,0 l/m 6,1 km/h (2 Bft) S 180 -5,5 C -4,8 C
18.01.2013 20:06 -2,4 C 80 % 1011,7 hPa 0,0 l/m 4,0 km/h (1 Bft) O-SO 112 -5,4 C -2,4 C
18.01.2013 20:11 -2,4 C 80 % 1011,8 hPa 0,0 l/m 16,2 km/h (3 Bft) S-SO 157 -5,4 C -7,6 C
18.01.2013 20:16 -2,5 C 80 % 1011,8 hPa 0,0 l/m 6,8 km/h (2 Bft) SO 135 -5,5 C -5,2 C
18.01.2013 20:21 -2,5 C 79 % 1011,7 hPa 0,0 l/m 6,1 km/h (2 Bft) O 90 -5,6 C -4,9 C
18.01.2013 20:26 -2,5 C 79 % 1011,6 hPa 0,0 l/m 4,0 km/h (1 Bft) SO 135 -5,6 C -2,5 C
18.01.2013 20:31 -2,6 C 79 % 1011,6 hPa 0,0 l/m 10,1 km/h (2 Bft) S-SO 157 -5,7 C -6,4 C
18.01.2013 20:36 -2,6 C 78 % 1011,6 hPa 0,0 l/m 11,9 km/h (2 Bft) O-SO 112 -5,9 C -6,9 C
18.01.2013 20:41 -2,6 C 78 % 1011,6 hPa 0,0 l/m 7,9 km/h (2 Bft) O-NO 67 -5,9 C -5,8 C
18.01.2013 20:46 -2,6 C 78 % 1011,7 hPa 0,0 l/m 11,2 km/h (2 Bft) SO 135 -5,9 C -6,7 C
18.01.2013 20:51 -2,6 C 78 % 1011,8 hPa 0,0 l/m 9,4 km/h (2 Bft) SO 135 -5,9 C -6,2 C
18.01.2013 20:56 -2,6 C 77 % 1011,7 hPa 0,0 l/m 3,6 km/h (1 Bft) SO 135 -6,1 C -2,6 C
18.01.2013 21:01 -2,6 C 77 % 1011,7 hPa 0,0 l/m 9,7 km/h (2 Bft) O-SO 112 -6,1 C -6,3 C
18.01.2013 21:06 -2,7 C 77 % 1011,7 hPa 0,0 l/m 9,4 km/h (2 Bft) SO 135 -6,2 C -6,4 C
18.01.2013 21:11 -2,7 C 77 % 1011,6 hPa 0,0 l/m 5,4 km/h (1 Bft) SO 135 -6,2 C -4,9 C
18.01.2013 21:16 -2,7 C 77 % 1011,5 hPa 0,0 l/m 4,0 km/h (1 Bft) O-SO 112 -6,2 C -2,7 C
18.01.2013 21:21 -2,7 C 77 % 1011,5 hPa 0,0 l/m 21,2 km/h (4 Bft) O-SO 112 -6,2 C -8,8 C
18.01.2013 21:26 -2,7 C 77 % 1011,4 hPa 0,0 l/m 11,2 km/h (2 Bft) O-SO 112 -6,2 C -6,9 C
18.01.2013 21:31 -2,7 C 78 % 1011,3 hPa 0,0 l/m 5,0 km/h (1 Bft) SO 135 -6,0 C -4,7 C
18.01.2013 21:36 -2,7 C 78 % 1011,3 hPa 0,0 l/m 5,0 km/h (1 Bft) O 90 -6,0 C -4,7 C
18.01.2013 21:41 -2,7 C 78 % 1011,3 hPa 0,0 l/m 7,6 km/h (2 Bft) O-SO 112 -6,0 C -5,8 C
18.01.2013 21:46 -2,7 C 78 % 1011,2 hPa 0,0 l/m 9,0 km/h (2 Bft) O-SO 112 -6,0 C -6,2 C
18.01.2013 21:51 -2,7 C 79 % 1011,3 hPa 0,0 l/m 7,2 km/h (2 Bft) O-SO 112 -5,8 C -5,6 C
18.01.2013 21:56 -2,7 C 79 % 1011,2 hPa 0,0 l/m 5,0 km/h (1 Bft) O 90 -5,8 C -4,7 C
18.01.2013 22:01 -2,7 C 79 % 1011,1 hPa 0,0 l/m 11,5 km/h (2 Bft) O-SO 112 -5,8 C -6,9 C
18.01.2013 22:06 -2,7 C 79 % 1011,1 hPa 0,0 l/m 6,5 km/h (2 Bft) O-SO 112 -5,8 C -5,3 C
18.01.2013 22:11 -2,7 C 79 % 1011,2 hPa 0,0 l/m 8,3 km/h (2 Bft) O-SO 112 -5,8 C -6,0 C
18.01.2013 22:16 -2,7 C 79 % 1011,1 hPa 0,0 l/m 3,2 km/h (1 Bft) O-SO 112 -5,8 C -2,7 C
18.01.2013 22:21 -2,7 C 79 % 1011,0 hPa 0,0 l/m 6,8 km/h (2 Bft) O 90 -5,8 C -5,5 C
18.01.2013 22:26 -2,7 C 79 % 1011,0 hPa 0,0 l/m 7,9 km/h (2 Bft) SO 135 -5,8 C -5,9 C
18.01.2013 22:31 -2,7 C 79 % 1011,0 hPa 0,0 l/m 5,4 km/h (1 Bft) O-NO 67 -5,8 C -4,9 C
18.01.2013 22:36 -2,7 C 78 % 1010,9 hPa 0,0 l/m 8,3 km/h (2 Bft) O 90 -6,0 C -6,0 C
18.01.2013 22:41 -2,7 C 77 % 1010,8 hPa 0,0 l/m 7,6 km/h (2 Bft) O-SO 112 -6,2 C -5,8 C
18.01.2013 22:46 -2,7 C 76 % 1010,6 hPa 0,0 l/m 13,3 km/h (3 Bft) O 90 -6,3 C -7,4 C
18.01.2013 22:51 -2,7 C 76 % 1010,7 hPa 0,0 l/m 7,9 km/h (2 Bft) O-NO 67 -6,3 C -5,9 C
18.01.2013 22:56 -2,7 C 76 % 1010,7 hPa 0,0 l/m 7,6 km/h (2 Bft) SO 135 -6,3 C -5,8 C
18.01.2013 23:01 -2,7 C 77 % 1010,7 hPa 0,0 l/m 3,2 km/h (1 Bft) O-SO 112 -6,2 C -2,7 C
18.01.2013 23:06 -2,7 C 77 % 1010,6 hPa 0,0 l/m 7,2 km/h (2 Bft) O 90 -6,2 C -5,6 C
18.01.2013 23:11 -2,7 C 77 % 1010,5 hPa 0,0 l/m 9,7 km/h (2 Bft) S-SO 157 -6,2 C -6,5 C
18.01.2013 23:16 -2,7 C 77 % 1010,6 hPa 0,0 l/m 9,7 km/h (2 Bft) SO 135 -6,2 C -6,5 C
18.01.2013 23:21 -2,7 C 77 % 1010,4 hPa 0,0 l/m 7,6 km/h (2 Bft) O-SO 112 -6,2 C -5,8 C
18.01.2013 23:26 -2,7 C 77 % 1010,3 hPa 0,0 l/m 17,3 km/h (3 Bft) O-SO 112 -6,2 C -8,2 C
18.01.2013 23:31 -2,7 C 76 % 1010,3 hPa 0,0 l/m 4,0 km/h (1 Bft) O 90 -6,3 C -2,7 C
18.01.2013 23:36 -2,7 C 76 % 1010,3 hPa 0,0 l/m 11,2 km/h (2 Bft) SO 135 -6,3 C -6,9 C
18.01.2013 23:41 -2,7 C 76 % 1010,1 hPa 0,0 l/m 6,8 km/h (2 Bft) O-NO 67 -6,3 C -5,5 C
18.01.2013 23:46 -2,7 C 76 % 1009,9 hPa 0,0 l/m 5,0 km/h (1 Bft) SO 135 -6,3 C -4,7 C
18.01.2013 23:51 -2,7 C 76 % 1010,2 hPa 0,0 l/m 6,8 km/h (2 Bft) O-SO 112 -6,3 C -5,5 C
18.01.2013 23:56 -2,7 C 77 % 1010,1 hPa 0,0 l/m 10,8 km/h (2 Bft) O-SO 112 -6,2 C -6,8 C
_ Min-Zeit 21:06 22:46 23:46 - 00:06 - - 22:46 21:21
Minimum _ -2,7 C 76 % 1009,9 hPa - 0,0 km/h (0 Bft) - - -6,3 C -8,8 C
_ Max-Zeit 00:01 01:36 00:11 00:01 21:21 - - 01:36 00:01
Maximum _ -0,4 C 91 % 1019,1 hPa 0,0 l/m 21,2 km/h
O-SO (4 Bft)
- - -1,8 C -0,4 C
Durchschnitt _ -1,8 C 83 % 1014,8 hPa #0,0 l/m 5,9 km/h (2 Bft) O-SO - -4,2 C -3,6 C
(c) by David Heller